Terminal Aerodrome Forecast
Issued by NWS Duluth, MN

Home | Current Version | Previous Version | Text Only | Print | Product List | Glossary On
Versions: 1 2 3 4 5 6 7 8 9 10 11 12 13 14 15 16 17 18 19 20
000
FTUS43 KDLH 280200 AAA
TAFDLH
TAF AMD
KDLH 280213Z 2802/2824 27007KT P6SM BKN035 OVC060
      TEMPO 2803/2806 OVC022
     FM280600 30009KT P6SM -SN SCT015 OVC025
      TEMPO 2806/2810 -SN OVC015
     FM281400 33012KT P6SM SCT030=

USA.gov is the U.S. government's official web portal to all federal, state and local government web resources and services.